Time;durP1;ratioP1;P1;durP2;ratioP2;P2;SDS_P1;SDS_P2;PMS_P1;PMS_P2;Temp;Humidity;BMP_temperature;BMP_pressure;BME280_temperature;BME280_humidity;BME280_pressure;Samples;Min_cycle;Max_cycle;Signal;HPM_P1;HPM_P2
2020/12/22 00:00:33;;;;;;;1.70;0.20;;;9.50;99.90;;;;;;5052580;28;20629;-58
2020/12/22 00:02:58;;;;;;;2.30;0.80;;;9.50;99.90;;;;;;5052241;28;20640;-58
2020/12/22 00:05:24;;;;;;;3.40;1.90;;;9.50;99.90;;;;;;5061836;28;20193;-59
2020/12/22 00:07:50;;;;;;;1.70;0.20;;;9.50;99.90;;;;;;5056812;28;20239;-57
2020/12/22 00:10:15;;;;;;;2.00;0.30;;;9.50;99.90;;;;;;5054169;28;20243;-58
2020/12/22 00:12:41;;;;;;;2.37;1.07;;;9.50;99.90;;;;;;5057917;28;20209;-58
2020/12/22 00:15:10;;;;;;;1.70;0.20;;;9.60;99.90;;;;;;5054099;28;20196;-58
2020/12/22 00:17:40;;;;;;;1.70;0.20;;;9.60;99.90;;;;;;5053774;28;20213;-59
2020/12/22 00:20:06;;;;;;;1.70;0.20;;;9.60;99.90;;;;;;5058417;28;20464;-57
2020/12/22 00:22:32;;;;;;;2.90;1.80;;;9.60;99.90;;;;;;5053207;28;20993;-58
2020/12/22 00:24:58;;;;;;;1.70;0.20;;;9.70;99.90;;;;;;5055281;28;20440;-58
2020/12/22 00:27:24;;;;;;;4.03;1.07;;;9.70;99.90;;;;;;5059519;28;20598;-58
2020/12/22 00:29:50;;;;;;;1.70;0.20;;;9.70;99.90;;;;;;5048841;28;20215;-58
2020/12/22 00:32:15;;;;;;;1.70;0.20;;;9.70;99.90;;;;;;5052531;28;20208;-58
2020/12/22 00:34:41;;;;;;;1.97;0.63;;;9.70;99.90;;;;;;5063591;28;20195;-58
2020/12/22 00:37:06;;;;;;;2.10;0.87;;;9.70;99.90;;;;;;5051703;28;20211;-58
2020/12/22 00:39:32;;;;;;;2.60;1.40;;;9.70;99.90;;;;;;5053528;28;20193;-58
2020/12/22 00:41:58;;;;;;;1.70;0.27;;;9.80;99.90;;;;;;5056912;28;20185;-58
2020/12/22 00:44:25;;;;;;;1.80;0.30;;;9.80;99.90;;;;;;5052382;28;20626;-58
2020/12/22 00:46:54;;;;;;;1.70;0.20;;;9.80;99.90;;;;;;5056273;28;20493;-58
2020/12/22 00:49:20;;;;;;;1.70;0.20;;;9.80;99.90;;;;;;5053396;28;20440;-58
2020/12/22 00:51:46;;;;;;;2.60;0.83;;;9.90;99.90;;;;;;5049929;28;20478;-58
2020/12/22 00:54:12;;;;;;;2.00;0.40;;;9.90;99.90;;;;;;5062749;28;20280;-58
2020/12/22 00:56:37;;;;;;;1.70;0.23;;;9.90;99.90;;;;;;5054078;28;20443;-58
2020/12/22 00:59:03;;;;;;;1.80;0.30;;;10.00;99.90;;;;;;5056445;28;20443;-58
2020/12/22 01:01:31;;;;;;;1.70;0.20;;;10.00;99.90;;;;;;5048235;28;20618;-58
2020/12/22 01:03:58;;;;;;;2.40;0.47;;;10.00;99.90;;;;;;5053110;28;20196;-58
2020/12/22 01:06:24;;;;;;;1.90;0.27;;;10.00;99.90;;;;;;5050232;28;20443;-57
2020/12/22 01:08:50;;;;;;;1.70;0.20;;;10.00;99.90;;;;;;5051900;28;20565;-58
2020/12/22 01:11:16;;;;;;;1.80;0.40;;;10.00;99.90;;;;;;5050889;28;20550;-57
2020/12/22 01:13:42;;;;;;;1.73;0.30;;;10.10;99.90;;;;;;5056492;28;20189;-58
2020/12/22 01:16:08;;;;;;;1.90;0.50;;;10.10;99.90;;;;;;5059509;28;20445;-58
2020/12/22 01:18:33;;;;;;;1.90;0.40;;;10.10;99.90;;;;;;5048396;28;20195;-57
2020/12/22 01:20:59;;;;;;;1.70;0.20;;;10.10;99.90;;;;;;5057571;28;20198;-57
2020/12/22 01:23:25;;;;;;;1.70;0.20;;;10.10;99.90;;;;;;5058177;28;20209;-59
2020/12/22 01:25:50;;;;;;;1.70;0.20;;;10.10;99.90;;;;;;5047870;28;20174;-58
2020/12/22 01:28:16;;;;;;;1.70;0.20;;;10.10;99.90;;;;;;5059126;28;20238;-58
2020/12/22 01:30:42;;;;;;;1.80;0.30;;;10.10;99.90;;;;;;5050409;28;20252;-57
2020/12/22 01:33:07;;;;;;;1.90;0.53;;;10.10;99.90;;;;;;5051458;28;20200;-58
2020/12/22 01:35:33;;;;;;;2.93;1.20;;;10.10;99.90;;;;;;5053746;28;20194;-58
2020/12/22 01:37:59;;;;;;;2.00;0.47;;;10.10;99.90;;;;;;5047150;28;20198;-58
2020/12/22 01:40:25;;;;;;;1.70;0.20;;;10.20;99.90;;;;;;5049511;28;20501;-57
2020/12/22 01:42:50;;;;;;;3.20;1.00;;;10.20;99.90;;;;;;5064350;28;20291;-57
2020/12/22 01:45:16;;;;;;;2.70;1.20;;;10.20;99.90;;;;;;5048802;28;20190;-57
2020/12/22 01:47:48;;;;;;;2.30;0.83;;;10.20;99.90;;;;;;5056079;28;20703;-57
2020/12/22 01:50:18;;;;;;;1.80;0.30;;;10.20;99.90;;;;;;5053552;28;20226;-57
2020/12/22 01:52:45;;;;;;;2.17;0.73;;;10.20;99.90;;;;;;5044191;28;20800;-58
2020/12/22 01:55:11;;;;;;;1.80;0.30;;;10.30;99.90;;;;;;5049533;28;20432;-57
2020/12/22 01:57:37;;;;;;;1.80;0.40;;;10.30;99.90;;;;;;5063117;28;20490;-58
2020/12/22 02:00:07;;;;;;;1.70;0.20;;;10.40;99.90;;;;;;5047026;28;20522;-58
2020/12/22 02:02:33;;;;;;;1.80;0.30;;;10.40;99.90;;;;;;5050047;28;20295;-59
2020/12/22 02:05:01;;;;;;;2.30;0.80;;;10.50;99.90;;;;;;5055048;28;20435;-59
2020/12/22 02:07:27;;;;;;;1.70;0.20;;;10.50;99.90;;;;;;5048159;28;20447;-58
2020/12/22 02:09:52;;;;;;;2.00;0.50;;;10.60;99.90;;;;;;5054304;28;20463;-58
2020/12/22 02:12:19;;;;;;;1.80;0.40;;;10.60;99.90;;;;;;5062717;28;20448;-58
2020/12/22 02:14:45;;;;;;;2.50;0.80;;;10.60;99.90;;;;;;5050749;28;20174;-57
2020/12/22 02:17:11;;;;;;;1.80;0.40;;;10.70;99.90;;;;;;5057377;28;20436;-58
2020/12/22 02:19:37;;;;;;;2.00;0.60;;;10.70;99.90;;;;;;5055447;28;20425;-57
2020/12/22 02:22:06;;;;;;;3.13;0.83;;;10.80;99.90;;;;;;5047591;28;20475;-58
2020/12/22 02:24:33;;;;;;;1.70;0.20;;;10.80;99.90;;;;;;5057374;28;20279;-58
2020/12/22 02:27:03;;;;;;;2.00;0.50;;;10.80;99.90;;;;;;5053175;28;20493;-58
2020/12/22 02:29:28;;;;;;;2.90;0.77;;;10.80;99.90;;;;;;5045690;28;20450;-57
2020/12/22 02:31:54;;;;;;;1.70;0.20;;;10.80;99.90;;;;;;5058434;28;21009;-57
2020/12/22 02:34:20;;;;;;;1.80;0.30;;;10.90;99.90;;;;;;5048976;28;20268;-57
2020/12/22 02:36:46;;;;;;;1.87;0.60;;;10.90;99.90;;;;;;5053332;28;23912;-58
2020/12/22 02:39:11;;;;;;;2.10;0.70;;;10.90;99.90;;;;;;5055682;28;20427;-59
2020/12/22 02:41:37;;;;;;;2.20;0.50;;;10.90;99.90;;;;;;5049755;28;20213;-57
2020/12/22 02:44:03;;;;;;;1.70;0.20;;;10.90;99.90;;;;;;5048565;28;20716;-59
2020/12/22 02:46:28;;;;;;;1.70;0.20;;;10.90;99.90;;;;;;5062693;28;20192;-59
2020/12/22 02:48:54;;;;;;;1.80;0.37;;;10.90;99.90;;;;;;5048284;28;20215;-57
2020/12/22 02:51:20;;;;;;;2.57;1.03;;;10.90;99.90;;;;;;5054192;28;20193;-59
2020/12/22 02:53:45;;;;;;;1.70;0.20;;;10.90;99.90;;;;;;5057992;28;20655;-58
2020/12/22 02:56:11;;;;;;;1.90;0.50;;;10.90;99.90;;;;;;5047623;28;20451;-58
2020/12/22 02:58:36;;;;;;;1.80;0.40;;;10.80;99.90;;;;;;5049581;28;20283;-58
2020/12/22 03:01:02;;;;;;;1.70;0.20;;;10.80;99.90;;;;;;5055876;28;20216;-58
2020/12/22 03:03:28;;;;;;;4.33;2.30;;;10.80;99.90;;;;;;5050313;28;20201;-58
2020/12/22 03:05:53;;;;;;;2.43;0.80;;;10.80;99.90;;;;;;5055944;28;20442;-57
2020/12/22 03:08:19;;;;;;;1.90;0.40;;;10.80;99.90;;;;;;5055434;28;20189;-58
2020/12/22 03:10:44;;;;;;;4.27;2.93;;;10.80;99.90;;;;;;5051366;28;20708;-58
2020/12/22 03:13:10;;;;;;;2.30;1.40;;;10.70;99.90;;;;;;5060199;28;20185;-59
2020/12/22 03:15:35;;;;;;;1.70;0.20;;;10.70;99.90;;;;;;5053665;28;20575;-58
2020/12/22 03:18:04;;;;;;;1.70;0.20;;;10.70;99.90;;;;;;5057199;28;20695;-57
2020/12/22 03:20:29;;;;;;;1.70;0.20;;;10.70;99.90;;;;;;5061239;28;20236;-59
2020/12/22 03:22:55;;;;;;;1.70;0.20;;;10.70;99.90;;;;;;5043600;28;20502;-57
2020/12/22 03:25:20;;;;;;;2.10;0.57;;;10.80;99.90;;;;;;5053043;28;20185;-58
2020/12/22 03:27:46;;;;;;;3.47;2.03;;;10.70;99.90;;;;;;5052876;28;20185;-57
2020/12/22 03:30:13;;;;;;;3.50;1.73;;;10.70;99.90;;;;;;5049179;28;20672;-57
2020/12/22 03:32:40;;;;;;;1.90;0.50;;;10.70;99.90;;;;;;5050723;28;20189;-59
2020/12/22 03:35:06;;;;;;;1.70;0.20;;;10.70;99.90;;;;;;5053708;28;20451;-59
2020/12/22 03:37:32;;;;;;;2.00;0.40;;;10.70;99.90;;;;;;5048840;28;20449;-58
2020/12/22 03:40:01;;;;;;;2.27;0.70;;;10.70;99.90;;;;;;5057639;28;20546;-57
2020/12/22 03:42:28;;;;;;;2.67;0.73;;;10.70;99.90;;;;;;5048936;28;20189;-59
2020/12/22 03:44:53;;;;;;;1.70;0.20;;;10.70;99.90;;;;;;5051764;28;20470;-59
2020/12/22 03:47:19;;;;;;;1.70;0.20;;;10.70;99.90;;;;;;5049284;28;20824;-60
2020/12/22 03:49:45;;;;;;;1.70;0.20;;;10.80;99.90;;;;;;5055435;28;20263;-58
2020/12/22 03:52:11;;;;;;;1.70;0.20;;;10.80;99.90;;;;;;5055094;28;20527;-57
2020/12/22 03:54:37;;;;;;;2.50;1.30;;;10.80;99.90;;;;;;5055337;28;20181;-57
2020/12/22 03:57:05;;;;;;;3.10;1.77;;;10.80;99.90;;;;;;5053931;28;20526;-59
2020/12/22 03:59:30;;;;;;;2.57;0.90;;;10.80;99.90;;;;;;5058922;28;20193;-58
2020/12/22 04:01:56;;;;;;;2.10;0.50;;;10.80;99.90;;;;;;5058581;28;20438;-59
2020/12/22 04:04:23;;;;;;;1.70;0.20;;;10.90;99.90;;;;;;5056675;28;20219;-60
2020/12/22 04:06:49;;;;;;;1.80;0.30;;;10.90;99.90;;;;;;5059540;28;20269;-59
2020/12/22 04:09:16;;;;;;;1.77;0.27;;;10.90;99.90;;;;;;5058979;28;20526;-59
2020/12/22 04:11:42;;;;;;;2.17;0.83;;;10.90;99.90;;;;;;5048954;28;20520;-59
2020/12/22 04:14:08;;;;;;;2.47;0.70;;;11.00;99.90;;;;;;5056882;28;20940;-59
2020/12/22 04:16:34;;;;;;;1.90;0.50;;;11.00;99.90;;;;;;5053392;28;20254;-59
2020/12/22 04:19:01;;;;;;;1.70;0.20;;;11.00;99.90;;;;;;5056022;28;20779;-59
2020/12/22 04:21:27;;;;;;;1.70;0.20;;;11.00;99.90;;;;;;5064254;28;20579;-59
2020/12/22 04:23:53;;;;;;;2.00;0.50;;;11.10;99.90;;;;;;5055123;28;20474;-59
2020/12/22 04:26:19;;;;;;;1.70;0.30;;;11.10;99.90;;;;;;5055948;28;20815;-58
2020/12/22 04:28:45;;;;;;;1.70;0.30;;;11.10;99.90;;;;;;5057516;28;20475;-59
2020/12/22 04:31:10;;;;;;;2.27;0.60;;;11.10;99.90;;;;;;5053188;28;20209;-58
2020/12/22 04:33:36;;;;;;;1.70;0.20;;;11.10;99.90;;;;;;5052920;28;20273;-59
2020/12/22 04:36:01;;;;;;;1.70;0.20;;;11.10;99.90;;;;;;5060453;28;20242;-59
2020/12/22 04:38:27;;;;;;;3.10;0.83;;;11.10;99.90;;;;;;5051849;28;20194;-60
2020/12/22 04:40:52;;;;;;;1.73;0.30;;;11.20;99.90;;;;;;5056782;28;20201;-60
2020/12/22 04:43:18;;;;;;;2.10;0.60;;;11.20;99.90;;;;;;5058457;28;20215;-59
2020/12/22 04:45:49;;;;;;;2.47;0.90;;;11.20;99.90;;;;;;5049766;28;20192;-57
2020/12/22 04:48:16;;;;;;;1.70;0.20;;;11.20;99.90;;;;;;5050326;28;20186;-59
2020/12/22 04:50:44;;;;;;;1.80;0.30;;;11.20;99.90;;;;;;5054110;28;20474;-57
2020/12/22 04:53:10;;;;;;;2.00;0.30;;;11.20;99.90;;;;;;5053824;28;20929;-59
2020/12/22 04:55:35;;;;;;;1.90;0.37;;;11.20;99.90;;;;;;5058747;28;20496;-59
2020/12/22 04:58:01;;;;;;;1.70;0.30;;;11.20;99.90;;;;;;5057340;28;20281;-59
2020/12/22 05:00:26;;;;;;;2.00;0.50;;;11.20;99.90;;;;;;5050024;28;20220;-59
2020/12/22 05:02:56;;;;;;;1.70;0.20;;;11.20;99.90;;;;;;5060605;28;20346;-59
2020/12/22 05:05:21;;;;;;;1.70;0.20;;;11.20;99.90;;;;;;5056483;28;20199;-58
2020/12/22 05:07:47;;;;;;;1.70;0.30;;;11.20;99.90;;;;;;5049440;28;20444;-57
2020/12/22 05:10:13;;;;;;;1.70;0.20;;;11.20;99.90;;;;;;5046407;28;20226;-59
2020/12/22 05:12:40;;;;;;;1.90;0.40;;;11.20;99.90;;;;;;5050398;28;20189;-59
2020/12/22 05:15:08;;;;;;;1.90;0.50;;;11.10;99.90;;;;;;5032043;28;20491;-59
2020/12/22 05:17:44;;;;;;;2.43;0.80;;;11.10;99.90;;;;;;5060551;28;20875;-59
2020/12/22 05:20:14;;;;;;;1.70;0.20;;;11.10;99.90;;;;;;5051615;28;20451;-59
2020/12/22 05:22:44;;;;;;;1.70;0.20;;;11.10;99.90;;;;;;5052521;28;20481;-58
2020/12/22 05:25:10;;;;;;;1.70;0.20;;;11.10;99.90;;;;;;5052099;28;20910;-59
2020/12/22 05:27:36;;;;;;;1.80;0.30;;;11.20;99.90;;;;;;5049360;28;20531;-58
2020/12/22 05:30:05;;;;;;;2.23;0.60;;;11.20;99.90;;;;;;5054933;28;20205;-58
2020/12/22 05:32:31;;;;;;;1.73;0.20;;;11.20;99.90;;;;;;5058398;28;20434;-58
2020/12/22 05:34:57;;;;;;;1.70;0.20;;;11.20;99.90;;;;;;5048600;28;20439;-56
2020/12/22 05:37:25;;;;;;;1.73;0.30;;;11.20;99.90;;;;;;5052027;28;20440;-59
2020/12/22 05:39:51;;;;;;;1.70;0.20;;;11.20;99.90;;;;;;5059599;28;20607;-58
2020/12/22 05:42:18;;;;;;;2.30;0.40;;;11.20;99.90;;;;;;5051304;28;20473;-58
2020/12/22 05:44:47;;;;;;;2.10;0.63;;;11.20;99.90;;;;;;5056675;28;20578;-58
2020/12/22 05:47:17;;;;;;;1.70;0.30;;;11.10;99.90;;;;;;5056495;28;20960;-59
2020/12/22 05:49:56;;;;;;;2.23;0.70;;;11.10;99.90;;;;;;5050907;28;20500;-58
2020/12/22 05:52:26;;;;;;;2.60;0.90;;;11.10;99.90;;;;;;5051314;28;20969;-59
2020/12/22 05:54:54;;;;;;;1.70;0.20;;;11.00;99.90;;;;;;5053602;28;20427;-58
2020/12/22 05:57:28;;;;;;;1.70;0.30;;;11.00;99.90;;;;;;5053608;28;20585;-59
2020/12/22 05:59:55;;;;;;;1.90;0.60;;;11.00;99.90;;;;;;5055822;28;20625;-58
2020/12/22 06:02:26;;;;;;;1.70;0.20;;;11.00;99.90;;;;;;5054986;28;21090;-58
2020/12/22 06:04:56;;;;;;;3.00;0.90;;;11.00;99.90;;;;;;5050532;28;20467;-58
2020/12/22 06:07:22;;;;;;;1.90;0.60;;;11.00;99.90;;;;;;5057717;28;20450;-58
2020/12/22 06:09:48;;;;;;;1.70;0.20;;;11.00;99.90;;;;;;5053378;28;20502;-58
2020/12/22 06:12:13;;;;;;;2.00;0.53;;;11.00;99.90;;;;;;5052670;28;20229;-58
2020/12/22 06:14:43;;;;;;;2.00;0.40;;;11.00;99.90;;;;;;5048539;28;20181;-59
2020/12/22 06:17:12;;;;;;;2.70;0.47;;;11.00;99.90;;;;;;5059816;28;20667;-58
2020/12/22 06:19:39;;;;;;;1.70;0.27;;;11.00;99.90;;;;;;5050861;28;20530;-58
2020/12/22 06:22:07;;;;;;;1.70;0.20;;;11.00;99.90;;;;;;5057782;28;20509;-59
2020/12/22 06:24:34;;;;;;;1.70;0.20;;;11.00;99.90;;;;;;5050967;28;20620;-58
2020/12/22 06:27:01;;;;;;;2.17;0.60;;;11.00;99.90;;;;;;5049158;28;20530;-58
2020/12/22 06:29:26;;;;;;;2.10;0.93;;;11.00;99.90;;;;;;5050838;28;20523;-58
2020/12/22 06:31:52;;;;;;;1.70;0.20;;;11.00;99.90;;;;;;5055681;28;20563;-58
2020/12/22 06:34:25;;;;;;;1.70;0.20;;;11.10;99.90;;;;;;5051321;28;20192;-58
2020/12/22 06:36:59;;;;;;;1.70;0.20;;;11.00;99.90;;;;;;5057231;28;20734;-59
2020/12/22 06:39:51;;;;;;;2.30;0.60;;;11.00;99.90;;;;;;5056779;28;20488;-58
2020/12/22 06:42:28;;;;;;;1.73;0.30;;;11.00;99.90;;;;;;5041958;28;20456;-58
2020/12/22 06:44:54;;;;;;;2.17;0.53;;;11.10;99.90;;;;;;5058033;28;20454;-57
2020/12/22 06:47:37;;;;;;;2.10;0.37;;;11.10;99.90;;;;;;5062555;28;20443;-58
2020/12/22 06:50:02;;;;;;;2.07;0.90;;;11.10;99.90;;;;;;5049159;28;20454;-57
2020/12/22 06:52:43;;;;;;;3.90;0.93;;;11.10;99.90;;;;;;5046342;28;20449;-58
2020/12/22 06:55:10;;;;;;;1.80;0.40;;;11.10;99.90;;;;;;5051211;28;20200;-58
2020/12/22 06:57:45;;;;;;;1.80;0.40;;;11.10;99.90;;;;;;5047395;28;20588;-57
2020/12/22 07:00:22;;;;;;;1.70;0.20;;;11.10;99.90;;;;;;5055776;28;20464;-58
2020/12/22 07:02:49;;;;;;;1.87;0.47;;;11.20;99.90;;;;;;5058257;28;20534;-58
2020/12/22 07:05:34;;;;;;;1.70;0.20;;;11.20;99.90;;;;;;5050020;28;20470;-58
2020/12/22 07:08:02;;;;;;;2.00;0.43;;;11.20;99.90;;;;;;5039800;28;20446;-58
2020/12/22 07:10:28;;;;;;;2.00;0.63;;;11.20;99.90;;;;;;5051854;28;20488;-58
2020/12/22 07:12:58;;;;;;;1.70;0.20;;;11.20;99.90;;;;;;5053687;28;20933;-57
2020/12/22 07:15:31;;;;;;;1.80;0.40;;;11.20;99.90;;;;;;5056339;28;20458;-58
2020/12/22 07:18:11;;;;;;;2.00;0.50;;;11.20;99.90;;;;;;5055245;28;20549;-59
2020/12/22 07:20:39;;;;;;;1.70;0.20;;;11.30;99.90;;;;;;5052889;28;20464;-57
2020/12/22 07:23:05;;;;;;;1.70;0.20;;;11.20;99.90;;;;;;5054354;28;20470;-59
2020/12/22 07:25:32;;;;;;;1.70;0.20;;;11.30;99.90;;;;;;5060991;28;20426;-58
2020/12/22 07:27:58;;;;;;;1.70;0.20;;;11.20;99.90;;;;;;5053801;28;20518;-58
2020/12/22 07:30:26;;;;;;;4.47;0.73;;;11.20;99.90;;;;;;5053935;28;20589;-59
2020/12/22 07:32:52;;;;;;;1.70;0.20;;;11.20;99.90;;;;;;5056349;28;20272;-58
2020/12/22 07:35:18;;;;;;;1.70;0.20;;;11.20;99.90;;;;;;5051874;28;20470;-58
2020/12/22 07:37:43;;;;;;;1.80;0.30;;;11.30;99.90;;;;;;5058442;28;20454;-57
2020/12/22 07:40:09;;;;;;;3.20;1.07;;;11.30;99.90;;;;;;5046509;28;20212;-57
2020/12/22 07:42:35;;;;;;;1.70;0.20;;;11.30;99.90;;;;;;5050759;28;20182;-58
2020/12/22 07:45:05;;;;;;;2.53;0.87;;;11.30;99.90;;;;;;5044744;28;20591;-58
2020/12/22 07:47:31;;;;;;;1.70;0.20;;;11.30;99.90;;;;;;5051402;28;20539;-57
2020/12/22 07:50:14;;;;;;;1.77;0.27;;;11.30;99.90;;;;;;5054939;28;20468;-58
2020/12/22 07:52:40;;;;;;;1.70;0.20;;;11.30;99.90;;;;;;5060090;28;20719;-57
2020/12/22 07:55:07;;;;;;;1.77;0.30;;;11.40;99.90;;;;;;5051584;28;20519;-58
2020/12/22 07:57:37;;;;;;;2.40;0.80;;;11.40;99.90;;;;;;5048850;28;20787;-57
2020/12/22 08:00:05;;;;;;;2.27;0.50;;;11.40;99.90;;;;;;5057984;28;20494;-58
2020/12/22 08:02:31;;;;;;;1.70;0.20;;;11.40;99.90;;;;;;5051048;28;20439;-58
2020/12/22 08:04:56;;;;;;;1.70;0.20;;;11.40;99.90;;;;;;5055486;28;20434;-57
2020/12/22 08:07:22;;;;;;;1.70;0.20;;;11.40;99.90;;;;;;5065090;28;20223;-58
2020/12/22 08:09:47;;;;;;;1.70;0.20;;;11.40;99.90;;;;;;5050206;28;20255;-58
2020/12/22 08:12:13;;;;;;;2.30;0.67;;;11.50;99.90;;;;;;5053443;28;20444;-58
2020/12/22 08:14:41;;;;;;;1.77;0.23;;;11.50;99.90;;;;;;5060577;28;20263;-56
2020/12/22 08:17:19;;;;;;;2.00;0.60;;;11.50;99.90;;;;;;5033353;28;20197;-57
2020/12/22 08:19:45;;;;;;;1.83;0.40;;;11.50;99.90;;;;;;5047191;28;20542;-57
2020/12/22 08:22:18;;;;;;;1.70;0.20;;;11.60;99.90;;;;;;5061563;28;20784;-57
2020/12/22 08:24:44;;;;;;;1.90;0.40;;;11.60;99.90;;;;;;5052682;28;20500;-57
2020/12/22 08:27:11;;;;;;;4.30;0.60;;;11.60;99.90;;;;;;5050226;28;20451;-59
2020/12/22 08:29:38;;;;;;;1.70;0.20;;;11.60;99.90;;;;;;5052245;28;20659;-58
2020/12/22 08:32:05;;;;;;;1.87;0.47;;;11.60;99.90;;;;;;5048611;28;20917;-58
2020/12/22 08:34:30;;;;;;;2.47;0.83;;;11.60;99.90;;;;;;5049299;28;20464;-58
2020/12/22 08:36:56;;;;;;;6.53;0.80;;;11.70;99.90;;;;;;5060498;28;20578;-58
2020/12/22 08:39:28;;;;;;;1.70;0.20;;;11.70;99.90;;;;;;5050803;28;20193;-57
2020/12/22 08:41:56;;;;;;;2.47;0.60;;;11.70;99.90;;;;;;5047956;28;20204;-59
2020/12/22 08:44:24;;;;;;;2.90;0.60;;;11.70;99.90;;;;;;5052391;28;20767;-58
2020/12/22 08:46:50;;;;;;;1.70;0.20;;;11.70;99.90;;;;;;5046591;28;20447;-58
2020/12/22 08:49:17;;;;;;;1.70;0.20;;;11.70;99.90;;;;;;5042597;28;20488;-58
2020/12/22 08:51:44;;;;;;;1.70;0.20;;;11.70;99.90;;;;;;5049276;28;20456;-59
2020/12/22 08:54:10;;;;;;;2.10;0.57;;;11.80;99.90;;;;;;5046406;28;20535;-58
2020/12/22 08:56:39;;;;;;;77.27;2.43;;;11.80;99.90;;;;;;5028833;28;20514;-58
2020/12/22 08:59:07;;;;;;;2.30;0.63;;;11.90;99.90;;;;;;5047404;28;20586;-58
2020/12/22 09:01:45;;;;;;;2.00;0.50;;;11.90;99.90;;;;;;5053251;28;20552;-58
2020/12/22 09:04:11;;;;;;;1.80;0.30;;;11.90;99.90;;;;;;5046492;28;20823;-58
2020/12/22 09:06:45;;;;;;;1.90;0.53;;;11.90;99.90;;;;;;5057665;28;20444;-58
2020/12/22 09:09:16;;;;;;;1.77;0.27;;;12.00;99.90;;;;;;5054257;28;20537;-58
2020/12/22 09:11:42;;;;;;;2.30;0.90;;;12.00;99.90;;;;;;5050313;28;20478;-58
2020/12/22 09:14:10;;;;;;;2.43;0.50;;;12.10;99.90;;;;;;5053655;28;20422;-58
2020/12/22 09:16:53;;;;;;;1.70;0.20;;;12.10;99.90;;;;;;5046136;28;20439;-59
2020/12/22 09:19:20;;;;;;;1.77;0.30;;;12.10;99.90;;;;;;5048763;28;20444;-58
2020/12/22 09:21:46;;;;;;;2.50;0.90;;;12.20;99.90;;;;;;5046128;28;20451;-58
2020/12/22 09:24:18;;;;;;;2.00;0.70;;;12.20;99.90;;;;;;5049803;28;20470;-58
2020/12/22 09:26:58;;;;;;;2.53;0.90;;;12.30;99.90;;;;;;5050003;28;20493;-57
2020/12/22 09:29:24;;;;;;;1.70;0.30;;;12.30;99.90;;;;;;5045493;28;20439;-57
2020/12/22 09:31:50;;;;;;;1.90;0.37;;;12.30;99.90;;;;;;5060884;28;20429;-58
2020/12/22 09:34:16;;;;;;;1.70;0.20;;;12.40;99.90;;;;;;5045931;28;20969;-58
2020/12/22 09:36:42;;;;;;;1.80;0.30;;;12.40;99.90;;;;;;5057127;28;20436;-57
2020/12/22 09:39:07;;;;;;;1.70;0.20;;;12.40;99.90;;;;;;5051462;28;20191;-57
2020/12/22 09:41:41;;;;;;;1.80;0.30;;;12.50;99.90;;;;;;5045917;28;21275;-57
2020/12/22 09:44:06;;;;;;;2.30;0.60;;;12.50;99.90;;;;;;5059374;28;20201;-57
2020/12/22 09:46:32;;;;;;;2.20;0.60;;;12.50;99.90;;;;;;5041866;28;20502;-58
2020/12/22 09:48:57;;;;;;;1.73;0.23;;;12.50;99.90;;;;;;5052381;28;20229;-57
2020/12/22 09:51:23;;;;;;;1.70;0.20;;;12.50;99.90;;;;;;5046259;28;20212;-57
2020/12/22 09:53:50;;;;;;;1.70;0.20;;;12.50;99.90;;;;;;5061195;28;20255;-57
2020/12/22 09:56:15;;;;;;;1.70;0.20;;;12.50;99.90;;;;;;5056978;28;20191;-57
2020/12/22 09:58:41;;;;;;;1.70;0.20;;;12.60;99.90;;;;;;5046316;28;20443;-57
2020/12/22 10:01:06;;;;;;;1.70;0.20;;;12.60;99.90;;;;;;5050544;28;20213;-57
2020/12/22 10:03:32;;;;;;;1.77;0.30;;;12.60;99.90;;;;;;5047157;28;20209;-57
2020/12/22 10:05:57;;;;;;;1.73;0.20;;;12.60;99.90;;;;;;5041531;28;20188;-56
2020/12/22 10:08:23;;;;;;;1.90;0.30;;;12.70;99.90;;;;;;5052527;28;20663;-57
2020/12/22 10:10:48;;;;;;;1.97;0.40;;;12.80;99.90;;;;;;5049647;28;20561;-60
2020/12/22 10:13:14;;;;;;;1.90;0.30;;;12.80;99.90;;;;;;5050446;28;20228;-60
2020/12/22 10:15:40;;;;;;;1.80;0.27;;;12.80;99.90;;;;;;5044038;28;20196;-60
2020/12/22 10:18:09;;;;;;;1.80;0.43;;;12.90;99.90;;;;;;5046875;28;20189;-60
2020/12/22 10:20:37;;;;;;;1.70;0.20;;;12.90;99.90;;;;;;5051721;28;20471;-60
2020/12/22 10:23:03;;;;;;;2.07;0.50;;;12.90;99.90;;;;;;5050192;28;20595;-60
2020/12/22 10:25:29;;;;;;;1.77;0.20;;;13.00;99.90;;;;;;5042085;28;20547;-60
2020/12/22 10:27:55;;;;;;;1.90;0.30;;;12.90;99.90;;;;;;5048303;28;20438;-61
2020/12/22 10:30:21;;;;;;;2.10;0.30;;;13.00;99.90;;;;;;5052583;28;20211;-61
2020/12/22 10:32:46;;;;;;;1.77;0.20;;;13.00;99.90;;;;;;5082478;22;20231;-69
2020/12/22 10:35:12;;;;;;;1.73;0.20;;;13.00;99.90;;;;;;5083661;28;20808;-68
2020/12/22 10:37:38;;;;;;;2.00;0.53;;;12.90;99.90;;;;;;5068305;28;20185;-67
2020/12/22 10:40:03;;;;;;;2.20;0.50;;;12.90;99.90;;;;;;5064227;28;20185;-68
2020/12/22 10:42:29;;;;;;;1.80;0.20;;;12.90;99.90;;;;;;5066410;28;20573;-68
2020/12/22 10:44:54;;;;;;;2.40;0.70;;;12.90;99.90;;;;;;5053289;28;20855;-68
2020/12/22 10:47:20;;;;;;;2.87;0.67;;;12.90;99.90;;;;;;5060362;28;20177;-68
2020/12/22 10:49:45;;;;;;;1.73;0.20;;;12.90;99.90;;;;;;5072127;28;20185;-67
2020/12/22 10:52:11;;;;;;;2.00;0.60;;;13.00;99.90;;;;;;5055726;28;20208;-67
2020/12/22 10:54:36;;;;;;;1.80;0.20;;;13.00;99.90;;;;;;5068237;28;20204;-68
2020/12/22 10:57:02;;;;;;;1.80;0.30;;;13.00;99.90;;;;;;5068533;28;22045;-68
2020/12/22 10:59:27;;;;;;;2.53;0.80;;;13.00;99.90;;;;;;5059337;28;20615;-68
2020/12/22 11:01:53;;;;;;;2.27;0.40;;;12.90;99.90;;;;;;5066922;28;20662;-67
2020/12/22 11:04:18;;;;;;;1.80;0.40;;;13.00;99.90;;;;;;5071652;28;20212;-67
2020/12/22 11:06:53;;;;;;;2.83;0.80;;;13.00;99.90;;;;;;5067399;28;20707;-68
2020/12/22 11:09:19;;;;;;;1.70;0.20;;;13.00;99.90;;;;;;5080972;28;20517;-67
2020/12/22 11:11:46;;;;;;;2.30;0.40;;;12.90;99.90;;;;;;5066295;28;20462;-67
2020/12/22 11:14:13;;;;;;;2.23;0.40;;;13.00;99.90;;;;;;5070011;28;20186;-67
2020/12/22 11:16:39;;;;;;;1.80;0.20;;;13.00;99.90;;;;;;5072996;28;20443;-67
2020/12/22 11:19:04;;;;;;;3.90;0.40;;;13.00;99.90;;;;;;5069769;28;20433;-67
2020/12/22 11:21:30;;;;;;;1.80;0.33;;;13.10;99.90;;;;;;5071887;28;20217;-67
2020/12/22 11:23:55;;;;;;;1.80;0.20;;;13.10;99.90;;;;;;5064767;28;20292;-68
2020/12/22 11:26:22;;;;;;;2.20;0.60;;;13.10;99.90;;;;;;5064945;28;20185;-67
2020/12/22 11:28:52;;;;;;;1.80;0.30;;;13.10;99.90;;;;;;5075273;28;20181;-68
2020/12/22 11:31:18;;;;;;;1.90;0.30;;;13.20;99.90;;;;;;5063609;28;20457;-67
2020/12/22 11:33:44;;;;;;;1.80;0.20;;;13.20;99.90;;;;;;5049916;28;20446;-67
2020/12/22 11:36:11;;;;;;;1.90;0.37;;;13.30;99.90;;;;;;5069900;28;21219;-67
2020/12/22 11:38:37;;;;;;;1.80;0.20;;;13.20;99.90;;;;;;5077282;28;20226;-68
2020/12/22 11:41:03;;;;;;;2.30;0.80;;;13.30;99.90;;;;;;5062388;28;20531;-68
2020/12/22 11:43:29;;;;;;;1.80;0.20;;;13.30;99.90;;;;;;5063601;28;20470;-68
2020/12/22 11:45:54;;;;;;;1.80;0.20;;;13.30;99.90;;;;;;5066463;28;20524;-68
2020/12/22 11:48:24;;;;;;;2.53;0.70;;;13.40;99.90;;;;;;5064135;28;20174;-68
2020/12/22 11:50:54;;;;;;;1.80;0.20;;;13.40;99.90;;;;;;5072616;28;20351;-67
2020/12/22 11:53:20;;;;;;;3.50;0.57;;;13.40;99.90;;;;;;5062070;28;20434;-66
2020/12/22 11:55:45;;;;;;;1.90;0.40;;;13.40;99.90;;;;;;5062924;28;20463;-66
2020/12/22 11:58:11;;;;;;;2.10;0.40;;;13.40;99.90;;;;;;5072448;28;20194;-66
2020/12/22 12:00:36;;;;;;;1.90;0.30;;;13.40;99.90;;;;;;5063895;28;20265;-66
2020/12/22 12:03:02;;;;;;;2.10;0.40;;;13.50;99.90;;;;;;5069207;28;20214;-66
2020/12/22 12:05:27;;;;;;;2.03;0.60;;;13.40;99.90;;;;;;5065355;28;20221;-67
2020/12/22 12:07:53;;;;;;;1.80;0.30;;;13.40;99.90;;;;;;5065226;28;20306;-66
2020/12/22 12:10:18;;;;;;;4.03;1.13;;;13.40;99.90;;;;;;5063623;28;20646;-66
2020/12/22 12:12:44;;;;;;;2.20;0.30;;;13.40;99.90;;;;;;5062583;28;20276;-66
2020/12/22 12:15:09;;;;;;;1.80;0.20;;;13.40;99.90;;;;;;5059215;28;20169;-66
2020/12/22 12:17:35;;;;;;;1.80;0.20;;;13.50;99.90;;;;;;5063308;28;20268;-66
2020/12/22 12:20:00;;;;;;;1.80;0.20;;;13.50;99.90;;;;;;5071681;28;20176;-66
2020/12/22 12:22:26;;;;;;;1.80;0.20;;;13.50;99.90;;;;;;5059316;28;20201;-66
2020/12/22 12:24:51;;;;;;;2.50;0.30;;;13.50;99.90;;;;;;5059238;28;20206;-67
2020/12/22 12:27:17;;;;;;;1.80;0.20;;;13.60;99.90;;;;;;5072823;28;20710;-67
2020/12/22 12:29:42;;;;;;;3.50;0.37;;;13.60;99.90;;;;;;5057043;28;20194;-66
2020/12/22 12:32:08;;;;;;;2.10;0.40;;;13.60;99.90;;;;;;5072007;28;20240;-66
2020/12/22 12:34:33;;;;;;;2.00;0.50;;;13.60;99.90;;;;;;5062207;28;20678;-66
2020/12/22 12:36:59;;;;;;;1.80;0.20;;;13.60;99.90;;;;;;5068211;28;20193;-66
2020/12/22 12:39:24;;;;;;;1.83;0.30;;;13.70;99.90;;;;;;5075185;28;20195;-66
2020/12/22 12:41:50;;;;;;;1.90;0.40;;;13.60;99.90;;;;;;5071652;28;20246;-66
2020/12/22 12:44:17;;;;;;;2.00;0.40;;;13.60;99.90;;;;;;5065253;28;20213;-66
2020/12/22 12:46:43;;;;;;;1.80;0.20;;;13.60;99.90;;;;;;5079437;28;20182;-66